Time;durP1;ratioP1;P1;durP2;ratioP2;P2;SDS_P1;SDS_P2;PMS_P1;PMS_P2;Temp;Humidity;BMP_temperature;BMP_pressure;BME280_temperature;BME280_humidity;BME280_pressure;Samples;Min_cycle;Max_cycle;Signal;HPM_P1;HPM_P2
2023/12/05 00:01:40;;;;;;;88.55;48.47;;;;;;;-3.66;100.00;99386.84;4958671;28;20400;-89
2023/12/05 00:04:06;;;;;;;81.55;46.50;;;;;;;-3.62;100.00;99388.56;4958490;28;20034;-89
2023/12/05 00:06:31;;;;;;;80.32;41.97;;;;;;;-3.72;100.00;99388.47;4957422;28;20033;-89
2023/12/05 00:08:57;;;;;;;84.97;44.33;;;;;;;-3.80;100.00;99379.09;4958200;28;20387;-89
2023/12/05 00:11:22;;;;;;;88.15;44.42;;;;;;;-3.74;100.00;99388.47;4958016;28;20491;-89
2023/12/05 00:13:47;;;;;;;76.57;41.38;;;;;;;-3.79;100.00;99373.19;4915314;29;20036;-88
2023/12/05 00:16:13;;;;;;;84.28;44.28;;;;;;;-3.78;100.00;99377.41;4899488;29;20577;-89
2023/12/05 00:18:38;;;;;;;90.28;43.40;;;;;;;-4.03;100.00;99342.47;4877718;29;20100;-89
2023/12/05 00:21:05;;;;;;;85.85;43.83;;;;;;;-3.77;100.00;99375.72;4877555;29;20049;-88
2023/12/05 00:23:31;;;;;;;77.80;40.78;;;;;;;-3.83;100.00;99360.44;4877716;29;20068;-89
2023/12/05 00:25:56;;;;;;;83.00;41.70;;;;;;;-3.86;100.00;99365.47;4862278;29;20049;-91
2023/12/05 00:28:21;;;;;;;77.63;39.97;;;;;;;-3.82;100.00;99377.38;4896405;29;20064;-89
2023/12/05 00:30:48;;;;;;;83.20;43.65;;;;;;;-3.94;100.00;99359.50;4896364;29;20037;-89
2023/12/05 00:33:13;;;;;;;79.05;44.00;;;;;;;-3.88;100.00;99372.25;4896526;29;20125;-90
2023/12/05 00:35:39;;;;;;;82.47;44.53;;;;;;;-3.94;100.00;99364.59;4896949;29;20033;-90
2023/12/05 00:38:05;;;;;;;98.45;54.40;;;;;;;-3.95;100.00;99365.44;4896047;29;20052;-90
2023/12/05 00:40:30;;;;;;;71.88;40.13;;;;;;;-3.92;100.00;99373.06;4896309;29;20048;-90
2023/12/05 00:42:56;;;;;;;78.43;41.50;;;;;;;-3.98;100.00;99368.78;4880746;29;20052;-90
2023/12/05 00:45:22;;;;;;;76.00;39.40;;;;;;;-4.06;100.00;99355.16;4929247;29;20044;-88
2023/12/05 00:47:48;;;;;;;75.18;40.05;;;;;;;-4.03;100.00;99353.50;4918264;29;20047;-89
2023/12/05 00:50:13;;;;;;;71.60;37.28;;;;;;;-4.07;100.00;99349.22;4933989;29;20194;-90
2023/12/05 00:52:39;;;;;;;76.75;40.05;;;;;;;-4.10;100.00;99348.34;4918293;29;20071;-90
2023/12/05 00:55:04;;;;;;;74.97;38.25;;;;;;;-4.06;100.00;99358.56;4932546;29;20043;-90
2023/12/05 00:57:30;;;;;;;69.82;37.08;;;;;;;-4.03;100.00;99362.81;4939409;29;20027;-90
2023/12/05 00:59:56;;;;;;;75.03;40.03;;;;;;;-4.04;100.00;99363.66;4918241;29;20500;-89
2023/12/05 01:02:22;;;;;;;80.97;38.10;;;;;;;-4.08;100.00;99364.50;4919510;29;20048;-90
2023/12/05 01:04:49;;;;;;;68.30;36.83;;;;;;;-4.14;100.00;99356.78;4916985;29;20068;-90
2023/12/05 01:07:14;;;;;;;77.28;38.13;;;;;;;-4.11;100.00;99361.91;4899123;29;20144;-90
2023/12/05 01:09:40;;;;;;;73.30;36.72;;;;;;;-4.15;100.00;99363.56;4915141;29;20544;-90
2023/12/05 01:12:07;;;;;;;81.10;40.85;;;;;;;-4.35;100.00;99327.81;4898975;29;20040;-90
2023/12/05 01:14:33;;;;;;;68.63;39.42;;;;;;;-4.05;100.00;99372.13;4899108;29;20086;-90
2023/12/05 01:16:58;;;;;;;78.45;39.10;;;;;;;-4.10;100.00;99366.16;4911945;29;20044;-89
2023/12/05 01:19:24;;;;;;;74.97;41.55;;;;;;;-4.08;100.00;99369.56;4919624;29;20520;-90
2023/12/05 01:21:49;;;;;;;76.18;39.78;;;;;;;-4.15;100.00;99368.66;4902156;29;20458;-87
2023/12/05 01:24:15;;;;;;;67.32;35.67;;;;;;;-4.07;100.00;99378.91;4898579;29;20189;-90
2023/12/05 01:26:40;;;;;;;80.35;41.50;;;;;;;-4.21;100.00;99345.75;4898413;29;20104;-89
2023/12/05 01:29:06;;;;;;;79.03;40.33;;;;;;;-4.05;100.00;99367.03;4913626;29;20035;-89
2023/12/05 01:31:31;;;;;;;88.05;42.65;;;;;;;-4.16;100.00;99358.50;4917112;29;20054;-89
2023/12/05 01:33:57;;;;;;;77.82;41.25;;;;;;;-4.18;100.00;99361.00;4932972;29;20042;-90
2023/12/05 01:36:22;;;;;;;87.28;43.80;;;;;;;-4.16;100.00;99359.34;4933075;29;20039;-89
2023/12/05 01:38:48;;;;;;;84.65;44.15;;;;;;;-4.19;100.00;99359.31;4932747;29;20519;-90
2023/12/05 01:41:13;;;;;;;77.63;41.58;;;;;;;-4.71;100.00;99266.53;4932418;29;20496;-89
2023/12/05 01:43:39;;;;;;;87.28;43.58;;;;;;;-4.19;100.00;99346.59;4932984;29;20050;-89
2023/12/05 01:46:06;;;;;;;86.25;42.85;;;;;;;-4.15;100.00;99352.56;4933088;29;20519;-89
2023/12/05 01:48:33;;;;;;;84.88;39.50;;;;;;;-4.30;100.00;99333.81;4951232;28;20096;-90
2023/12/05 01:51:01;;;;;;;88.72;42.95;;;;;;;-4.28;100.00;99336.34;4956159;28;20031;-89
2023/12/05 01:53:27;;;;;;;94.13;43.75;;;;;;;-4.26;100.00;99347.38;4956335;28;20037;-90
2023/12/05 01:55:53;;;;;;;81.43;42.58;;;;;;;-4.33;100.00;99336.31;4956338;28;20038;-89
2023/12/05 01:58:19;;;;;;;84.55;43.15;;;;;;;-4.28;100.00;99352.44;4957848;28;20072;-89
2023/12/05 02:00:45;;;;;;;81.45;41.90;;;;;;;-4.29;100.00;99353.31;4957060;28;20312;-89
2023/12/05 02:03:20;;;;;;;79.38;40.90;;;;;;;-4.44;100.00;99347.22;4958605;28;20042;-90
2023/12/05 02:05:46;;;;;;;78.60;38.80;;;;;;;-4.42;100.00;99353.19;4959999;28;20550;-89
2023/12/05 02:09:03;;;;;;;73.57;36.83;;;;;;;-4.40;100.00;99357.44;4915069;29;20048;-89
2023/12/05 02:11:32;;;;;;;83.13;41.60;;;;;;;-4.79;100.00;99287.63;4882926;29;20032;-90
2023/12/05 02:13:59;;;;;;;67.28;38.10;;;;;;;-4.40;100.00;99352.34;4880269;29;20075;-89
2023/12/05 02:16:49;;;;;;;85.60;41.20;;;;;;;-4.45;100.00;99355.69;4876186;29;20538;-90
2023/12/05 02:19:39;;;;;;;71.18;38.75;;;;;;;-4.52;100.00;99337.00;4875664;29;20483;-89
2023/12/05 02:22:11;;;;;;;75.32;38.70;;;;;;;-4.75;100.00;99297.81;4875716;29;20574;-90
2023/12/05 02:24:46;;;;;;;71.95;36.63;;;;;;;-4.68;100.00;99305.50;4860634;29;20104;-89
2023/12/05 02:27:30;;;;;;;72.93;38.40;;;;;;;-4.49;100.00;99334.47;4875361;29;20076;-89
2023/12/05 02:30:24;;;;;;;73.53;36.70;;;;;;;-4.45;100.00;99332.81;4866355;29;20111;-89
2023/12/05 02:33:08;;;;;;;73.95;37.53;;;;;;;-5.04;100.00;99235.75;4814395;29;20046;-87
2023/12/05 02:36:00;;;;;;;71.05;37.13;;;;;;;-4.89;100.00;99277.34;4814989;29;20035;-88
2023/12/05 02:39:07;;;;;;;72.78;36.80;;;;;;;-4.48;100.00;99326.00;4812537;29;20118;-89
2023/12/05 02:41:37;;;;;;;73.03;36.83;;;;;;;-4.43;100.00;99326.91;4760103;30;20430;-90
2023/12/05 02:44:02;;;;;;;76.43;36.75;;;;;;;-4.42;100.00;99317.59;4788140;30;20058;-89
2023/12/05 02:46:28;;;;;;;67.15;35.55;;;;;;;-4.43;100.00;99319.25;4788000;30;20035;-89
2023/12/05 02:48:54;;;;;;;73.45;36.95;;;;;;;-4.52;100.00;99307.34;4787773;29;20107;-89
2023/12/05 02:51:20;;;;;;;77.78;37.53;;;;;;;-4.48;100.00;99318.38;4796721;29;20045;-89
2023/12/05 02:53:45;;;;;;;70.22;35.72;;;;;;;-4.56;100.00;99304.75;4806086;29;20043;-89
2023/12/05 02:56:11;;;;;;;71.75;35.20;;;;;;;-4.50;100.00;99309.91;4805787;29;20050;-88
2023/12/05 02:58:36;;;;;;;66.05;35.33;;;;;;;-4.48;100.00;99302.28;4805759;29;20168;-90
2023/12/05 03:01:02;;;;;;;70.45;36.90;;;;;;;-4.53;100.00;99294.63;4805678;29;20046;-89
2023/12/05 03:03:28;;;;;;;67.53;36.60;;;;;;;-4.46;100.00;99304.00;4805499;29;20049;-89
2023/12/05 03:05:53;;;;;;;79.80;37.28;;;;;;;-4.53;100.00;99287.84;4791159;29;20047;-89
2023/12/05 03:08:18;;;;;;;69.93;36.75;;;;;;;-4.50;100.00;99298.91;4820626;29;20046;-90
2023/12/05 03:10:44;;;;;;;70.25;38.63;;;;;;;-4.61;100.00;99264.06;4856827;29;20100;-89
2023/12/05 03:13:09;;;;;;;70.82;37.92;;;;;;;-4.45;100.00;99293.00;4845213;29;20607;-90
2023/12/05 03:15:35;;;;;;;70.50;35.92;;;;;;;-4.41;100.00;99293.88;4845775;29;20519;-89
2023/12/05 03:18:36;;;;;;;73.82;37.60;;;;;;;-4.76;100.00;99241.09;4870660;29;20044;-89
2023/12/05 03:24:04;;;;;;;64.03;34.17;;;;;;;-4.50;100.00;99269.25;4885052;29;20040;-88
2023/12/05 03:26:29;;;;;;;73.07;37.05;;;;;;;-4.42;100.00;99297.28;4879756;29;20045;-89
2023/12/05 03:28:55;;;;;;;79.93;39.88;;;;;;;-4.40;100.00;99298.13;4879165;29;20048;-90
2023/12/05 03:31:20;;;;;;;71.57;36.95;;;;;;;-4.38;100.00;99292.22;4878812;29;20048;-89
2023/12/05 03:33:46;;;;;;;78.07;37.85;;;;;;;-4.39;100.00;99290.50;4864527;29;20091;-88
2023/12/05 03:36:12;;;;;;;71.65;36.13;;;;;;;-4.77;100.00;99232.59;4863497;29;20052;-88
2023/12/05 03:38:38;;;;;;;75.25;38.38;;;;;;;-4.35;100.00;99284.59;4878592;29;20477;-89
2023/12/05 03:41:04;;;;;;;74.93;40.33;;;;;;;-4.37;100.00;99286.28;4883108;29;20072;-90
2023/12/05 03:47:37;;;;;;;81.40;39.75;;;;;;;-4.38;100.00;99279.50;4811870;29;20043;-89
2023/12/05 03:50:03;;;;;;;78.70;37.78;;;;;;;-4.41;100.00;99282.03;4805593;29;20608;-89
2023/12/05 03:52:28;;;;;;;78.43;40.08;;;;;;;-4.42;100.00;99287.94;4804998;29;20042;-89
2023/12/05 03:54:54;;;;;;;78.25;41.00;;;;;;;-4.43;100.00;99276.06;4805164;29;20069;-89
2023/12/05 03:57:19;;;;;;;84.70;41.55;;;;;;;-4.36;100.00;99285.44;4794684;29;20499;-89
2023/12/05 03:59:46;;;;;;;87.70;43.15;;;;;;;-4.30;100.00;99280.41;4823374;29;20140;-89
2023/12/05 04:02:12;;;;;;;91.15;43.22;;;;;;;-4.28;100.00;99285.50;4823482;29;20041;-89
2023/12/05 04:04:37;;;;;;;77.82;37.92;;;;;;;-4.29;100.00;99289.75;4846504;29;20042;-89
2023/12/05 04:07:03;;;;;;;95.22;47.22;;;;;;;-4.30;100.00;99288.03;4841359;29;20048;-89
2023/12/05 04:09:28;;;;;;;83.70;42.00;;;;;;;-4.31;100.00;99281.22;4840936;29;20106;-88
2023/12/05 04:11:53;;;;;;;81.32;38.03;;;;;;;-4.28;100.00;99281.25;4841139;29;20486;-88
2023/12/05 04:14:19;;;;;;;85.03;40.28;;;;;;;-4.25;100.00;99289.75;4841088;29;20034;-89
2023/12/05 04:16:44;;;;;;;97.72;46.80;;;;;;;-4.40;100.00;99254.91;4841204;29;20058;-88
2023/12/05 04:19:10;;;;;;;87.93;41.75;;;;;;;-4.16;100.00;99289.81;4840914;29;20044;-88
2023/12/05 04:21:35;;;;;;;249.18;115.30;;;;;;;-4.14;100.00;99288.13;4846787;29;20034;-89
2023/12/05 04:24:01;;;;;;;121.85;57.00;;;;;;;-4.19;100.00;99270.28;4959075;28;20042;-89
2023/12/05 04:26:26;;;;;;;95.65;51.97;;;;;;;-4.13;100.00;99277.09;4958481;28;20039;-89
2023/12/05 04:28:51;;;;;;;142.18;78.57;;;;;;;-4.23;100.00;99271.13;4958415;28;20034;-89
2023/12/05 04:31:17;;;;;;;100.95;52.60;;;;;;;-4.21;100.00;99274.53;4957393;28;20035;-89
2023/12/05 04:33:43;;;;;;;183.88;101.00;;;;;;;-4.67;100.00;99181.88;4958497;28;20309;-89
2023/12/05 04:36:09;;;;;;;97.43;49.60;;;;;;;-4.27;100.00;99252.44;4957655;28;20034;-86
2023/12/05 04:38:38;;;;;;;369.95;173.93;;;;;;;-4.38;100.00;99243.91;4959738;28;20071;-89
2023/12/05 04:41:04;;;;;;;78.05;39.00;;;;;;;-4.32;100.00;99259.19;4959000;28;20046;-88
2023/12/05 04:43:33;;;;;;;106.47;55.25;;;;;;;-4.39;100.00;99246.44;4957924;28;20034;-88
2023/12/05 04:46:02;;;;;;;82.22;42.88;;;;;;;-4.41;100.00;99230.34;4960076;28;20038;-88
2023/12/05 04:48:27;;;;;;;73.13;38.10;;;;;;;-4.26;100.00;99250.75;4958574;28;20057;-88
2023/12/05 04:50:53;;;;;;;76.90;38.97;;;;;;;-4.37;100.00;99244.75;4957392;28;20031;-88
2023/12/05 04:53:18;;;;;;;82.47;42.20;;;;;;;-4.35;100.00;99255.78;4956506;28;20034;-88
2023/12/05 04:55:43;;;;;;;92.07;45.05;;;;;;;-4.42;100.00;99265.06;4934070;29;20048;-88
2023/12/05 04:58:09;;;;;;;95.72;51.47;;;;;;;-4.41;100.00;99259.13;4919197;29;20043;-88
2023/12/05 05:00:34;;;;;;;76.63;45.33;;;;;;;-4.49;100.00;99240.44;4934589;29;20050;-89
2023/12/05 05:03:00;;;;;;;74.70;38.33;;;;;;;-4.40;100.00;99263.38;4919494;29;20031;-88
2023/12/05 05:05:26;;;;;;;73.03;37.10;;;;;;;-4.46;100.00;99253.19;4917953;29;20059;-88
2023/12/05 05:07:51;;;;;;;71.43;36.28;;;;;;;-4.46;100.00;99268.44;4933878;29;20080;-88
2023/12/05 05:10:18;;;;;;;74.00;37.97;;;;;;;-4.48;100.00;99262.47;4917600;29;20508;-88
2023/12/05 05:12:43;;;;;;;80.47;36.80;;;;;;;-4.48;100.00;99271.78;4933325;29;20146;-88
2023/12/05 05:15:09;;;;;;;71.18;37.78;;;;;;;-4.46;100.00;99265.88;4933021;29;20485;-89
2023/12/05 05:17:47;;;;;;;77.72;40.40;;;;;;;-4.51;100.00;99254.81;4934168;29;20044;-88
2023/12/05 05:20:13;;;;;;;74.70;37.92;;;;;;;-4.45;100.00;99265.03;4921304;29;20040;-88
2023/12/05 05:22:38;;;;;;;73.65;36.30;;;;;;;-4.42;100.00;99271.84;4918605;29;20481;-88
2023/12/05 05:25:46;;;;;;;78.57;40.63;;;;;;;-4.44;100.00;99270.97;4921118;29;20036;-88
2023/12/05 05:28:10;;;;;;;75.05;37.13;;;;;;;-4.39;100.00;99270.16;4881018;29;20041;-88
2023/12/05 05:30:36;;;;;;;77.43;39.58;;;;;;;-4.42;100.00;99261.69;4861043;29;20052;-86
2023/12/05 05:33:01;;;;;;;76.57;39.35;;;;;;;-4.39;100.00;99249.81;4876642;29;20079;-88
2023/12/05 05:35:27;;;;;;;70.68;36.72;;;;;;;-4.43;100.00;99245.56;4861147;29;20068;-88
2023/12/05 05:37:52;;;;;;;74.18;35.60;;;;;;;-4.66;100.00;99227.59;4861151;29;20053;-89
2023/12/05 05:40:18;;;;;;;73.75;37.90;;;;;;;-4.41;100.00;99268.47;4876957;29;20041;-88
2023/12/05 05:42:44;;;;;;;68.95;37.20;;;;;;;-4.53;100.00;99257.34;4876721;29;20037;-88
2023/12/05 05:45:10;;;;;;;72.88;35.92;;;;;;;-4.55;100.00;99264.13;4876360;29;20110;-88
2023/12/05 05:47:35;;;;;;;71.60;36.85;;;;;;;-4.53;100.00;99270.06;4876554;29;20104;-88
2023/12/05 05:50:01;;;;;;;80.13;41.05;;;;;;;-4.60;100.00;99263.22;4876585;29;20041;-88
2023/12/05 05:52:26;;;;;;;76.47;38.55;;;;;;;-4.61;100.00;99258.97;4875887;29;20045;-88
2023/12/05 05:54:52;;;;;;;72.82;37.90;;;;;;;-4.63;100.00;99253.06;4876376;29;20045;-88
2023/12/05 05:57:17;;;;;;;77.20;39.28;;;;;;;-4.61;100.00;99255.59;4876664;29;20037;-88
2023/12/05 05:59:43;;;;;;;79.05;41.58;;;;;;;-4.59;100.00;99261.56;4876808;29;20545;-88
2023/12/05 06:02:12;;;;;;;76.57;39.50;;;;;;;-4.65;100.00;99247.09;4860759;29;20060;-88
2023/12/05 06:04:41;;;;;;;90.53;45.25;;;;;;;-4.73;100.00;99233.47;4912458;28;20043;-88
2023/12/05 06:07:08;;;;;;;86.97;45.50;;;;;;;-4.62;100.00;99262.38;4972491;28;20035;-88
2023/12/05 06:09:34;;;;;;;85.63;41.67;;;;;;;-4.80;100.00;99216.50;4956613;28;20109;-88
2023/12/05 06:11:59;;;;;;;75.70;40.53;;;;;;;-4.56;100.00;99272.56;4956696;28;20037;-88
2023/12/05 06:14:24;;;;;;;82.25;40.85;;;;;;;-4.48;100.00;99271.78;4956048;28;20030;-88
2023/12/05 06:16:50;;;;;;;83.03;41.20;;;;;;;-4.63;100.00;99254.75;4957579;28;20042;-88
2023/12/05 06:19:16;;;;;;;84.65;43.58;;;;;;;-4.53;100.00;99275.16;4957140;28;20035;-88
2023/12/05 06:21:42;;;;;;;76.70;40.70;;;;;;;-4.56;100.00;99261.56;4957783;28;20042;-89
2023/12/05 06:24:08;;;;;;;88.22;44.78;;;;;;;-4.50;100.00;99268.41;4957562;28;20034;-87
2023/12/05 06:26:34;;;;;;;81.57;41.28;;;;;;;-4.67;100.00;99243.69;4959941;28;20101;-89
2023/12/05 06:29:01;;;;;;;85.10;43.20;;;;;;;-4.59;100.00;99259.84;4966897;28;20038;-89
2023/12/05 06:31:26;;;;;;;75.90;41.25;;;;;;;-4.58;100.00;99260.72;4966088;28;20026;-89
2023/12/05 06:33:52;;;;;;;88.90;42.97;;;;;;;-4.58;100.00;99275.94;4965611;28;20050;-89
2023/12/05 06:36:18;;;;;;;85.82;43.85;;;;;;;-4.71;100.00;99244.50;4960204;28;20440;-89
2023/12/05 06:38:43;;;;;;;83.07;42.05;;;;;;;-4.60;100.00;99258.13;4957406;28;20055;-88
2023/12/05 06:41:09;;;;;;;82.82;42.13;;;;;;;-4.60;100.00;99263.22;4955374;28;20476;-89
2023/12/05 06:43:34;;;;;;;83.43;42.50;;;;;;;-4.60;100.00;99249.66;4955616;28;20094;-89
2023/12/05 06:46:00;;;;;;;71.35;38.92;;;;;;;-4.46;100.00;99276.06;4956115;28;20038;-89
2023/12/05 06:48:25;;;;;;;80.30;40.30;;;;;;;-4.58;100.00;99253.09;4955821;28;20114;-88
2023/12/05 06:50:51;;;;;;;79.72;41.00;;;;;;;-4.51;100.00;99267.50;4956811;28;20374;-88
2023/12/05 06:53:16;;;;;;;78.47;38.80;;;;;;;-4.53;100.00;99266.66;4955689;28;20369;-89
2023/12/05 06:55:42;;;;;;;80.45;40.00;;;;;;;-4.49;100.00;99263.31;4956056;28;20086;-89
2023/12/05 06:58:07;;;;;;;77.43;38.75;;;;;;;-4.45;100.00;99254.88;4955629;28;20027;-88
2023/12/05 07:00:34;;;;;;;84.97;42.45;;;;;;;-4.36;100.00;99272.72;4956363;28;20126;-88
2023/12/05 07:02:59;;;;;;;69.63;38.15;;;;;;;-4.37;100.00;99272.72;4972880;28;20481;-89
2023/12/05 07:05:25;;;;;;;73.93;38.33;;;;;;;-4.36;100.00;99259.16;4955456;28;20039;-88
2023/12/05 07:07:50;;;;;;;89.50;47.20;;;;;;;-4.38;100.00;99260.84;4955648;28;20038;-89
2023/12/05 07:10:15;;;;;;;70.93;38.42;;;;;;;-4.28;100.00;99270.25;4955775;28;20038;-89
2023/12/05 07:12:41;;;;;;;72.75;37.67;;;;;;;-4.29;100.00;99276.19;4956463;28;20388;-89
2023/12/05 07:15:08;;;;;;;73.60;36.78;;;;;;;-4.36;100.00;99254.09;4955328;28;20039;-88
2023/12/05 07:17:34;;;;;;;70.78;37.83;;;;;;;-4.31;100.00;99263.44;4958805;28;20038;-89
2023/12/05 07:19:59;;;;;;;75.07;38.47;;;;;;;-4.36;100.00;99251.53;4959424;28;20038;-87
2023/12/05 07:22:24;;;;;;;76.57;38.42;;;;;;;-4.33;100.00;99242.25;4958961;28;20320;-89
2023/12/05 07:24:50;;;;;;;72.18;36.95;;;;;;;-4.27;100.00;99244.81;4958878;28;20031;-89
2023/12/05 07:27:15;;;;;;;73.95;35.78;;;;;;;-4.12;100.00;99256.78;4958461;28;20031;-88
2023/12/05 07:29:40;;;;;;;70.25;36.22;;;;;;;-4.00;100.00;99271.28;4954184;29;20142;-89
2023/12/05 07:32:06;;;;;;;72.10;36.25;;;;;;;-4.06;100.00;99251.72;4954952;29;20158;-88
2023/12/05 07:34:31;;;;;;;72.82;35.50;;;;;;;-3.95;99.92;99253.50;4954878;29;20504;-88
2023/12/05 07:36:57;;;;;;;71.68;37.60;;;;;;;-3.90;99.83;99246.72;4954961;29;20544;-88
2023/12/05 07:39:23;;;;;;;70.80;38.35;;;;;;;-3.77;100.00;99259.50;4953522;28;20063;-89
2023/12/05 07:41:49;;;;;;;74.63;39.03;;;;;;;-3.78;99.44;99252.72;4954245;29;20130;-88
2023/12/05 07:44:14;;;;;;;74.32;37.22;;;;;;;-3.71;99.50;99271.41;4954383;29;20075;-87
2023/12/05 07:46:42;;;;;;;93.47;49.55;;;;;;;-3.75;99.23;99251.88;4954350;29;20053;-88
2023/12/05 07:49:08;;;;;;;95.10;53.47;;;;;;;-3.77;99.35;99236.59;4953606;29;20047;-88
2023/12/05 07:51:33;;;;;;;83.85;46.22;;;;;;;-3.60;98.96;99258.72;4956701;29;20425;-88
2023/12/05 07:53:58;;;;;;;75.32;36.95;;;;;;;-3.55;99.00;99255.34;4959401;29;20424;-87
2023/12/05 07:56:50;;;;;;;77.30;41.80;;;;;;;-3.34;98.93;99263.91;4962008;29;20053;-88
2023/12/05 08:00:39;;;;;;;71.90;38.47;;;;;;;-3.33;98.48;99265.59;4960834;29;20027;-88
2023/12/05 08:02:38;;;;;;;82.57;37.95;;;;;;;-3.43;97.76;99262.19;4962382;28;20487;-88
2023/12/05 08:05:04;;;;;;;71.45;37.25;;;;;;;-3.59;98.04;99230.72;4958271;28;20026;-88
2023/12/05 08:07:29;;;;;;;77.10;41.28;;;;;;;-3.42;97.95;99255.41;4958161;28;20022;-89
2023/12/05 08:09:55;;;;;;;72.65;39.10;;;;;;;-3.34;98.27;99263.91;4958578;28;20653;-88
2023/12/05 08:12:20;;;;;;;73.47;38.65;;;;;;;-3.37;97.71;99253.72;4958336;28;20030;-88
2023/12/05 08:14:46;;;;;;;72.82;37.35;;;;;;;-3.36;97.21;99253.75;4960806;28;20042;-89
2023/12/05 08:17:11;;;;;;;74.32;39.90;;;;;;;-3.28;97.85;99267.34;4957823;28;20022;-89
2023/12/05 08:19:36;;;;;;;107.38;61.35;;;;;;;-3.29;97.63;99272.41;4958170;28;20026;-89
2023/12/05 08:22:02;;;;;;;78.07;42.38;;;;;;;-3.27;97.74;99265.66;4958087;28;20117;-88
2023/12/05 08:24:27;;;;;;;79.35;44.38;;;;;;;-3.19;97.57;99263.97;4975709;28;20065;-88
2023/12/05 08:26:53;;;;;;;90.72;52.42;;;;;;;-3.10;97.83;99261.44;4957664;28;20027;-88
2023/12/05 08:29:18;;;;;;;73.57;40.03;;;;;;;-3.22;97.50;99258.84;4956249;28;20031;-88
2023/12/05 08:31:44;;;;;;;75.18;40.45;;;;;;;-3.14;97.06;99262.28;4933560;29;20035;-88
2023/12/05 08:34:10;;;;;;;70.65;37.28;;;;;;;-3.12;97.00;99269.91;4914524;29;20044;-88
2023/12/05 08:36:35;;;;;;;70.45;37.10;;;;;;;-3.19;96.95;99265.66;4899099;29;20044;-88
2023/12/05 08:39:00;;;;;;;64.00;36.42;;;;;;;-3.20;97.22;99266.50;4914719;29;20055;-89
2023/12/05 08:41:26;;;;;;;71.78;38.20;;;;;;;-3.16;97.65;99273.28;4914286;29;20117;-88
2023/12/05 08:43:51;;;;;;;77.22;40.40;;;;;;;-3.32;97.48;99224.88;4914785;29;20512;-87
2023/12/05 08:46:17;;;;;;;84.72;41.03;;;;;;;-3.12;97.58;99265.69;4914365;29;20044;-88
2023/12/05 08:48:43;;;;;;;80.97;40.75;;;;;;;-3.21;97.68;99246.97;4914862;29;20503;-88
2023/12/05 08:51:08;;;;;;;84.40;44.17;;;;;;;-3.14;97.86;99264.81;4914250;29;20040;-88
2023/12/05 08:53:34;;;;;;;82.90;40.72;;;;;;;-3.04;97.65;99275.88;4914238;29;20047;-88
2023/12/05 08:56:00;;;;;;;71.28;38.42;;;;;;;-3.02;97.86;99276.75;4898638;29;20047;-88
2023/12/05 08:58:26;;;;;;;73.57;40.40;;;;;;;-3.03;97.80;99278.44;4857833;29;20064;-88
2023/12/05 09:00:51;;;;;;;101.95;63.00;;;;;;;-3.04;97.75;99284.38;4842992;29;20049;-88
2023/12/05 09:03:18;;;;;;;175.00;93.00;;;;;;;-3.09;97.70;99275.88;4855744;29;20120;-89
2023/12/05 09:05:44;;;;;;;106.75;59.88;;;;;;;-3.09;97.44;99283.50;4877977;29;20219;-88
2023/12/05 09:08:10;;;;;;;99.72;57.08;;;;;;;-3.15;97.76;99277.56;4861090;29;20053;-87
2023/12/05 09:10:36;;;;;;;92.40;48.80;;;;;;;-3.18;97.90;99275.00;4862621;29;20131;-88
2023/12/05 09:13:01;;;;;;;97.05;51.65;;;;;;;-3.10;98.29;99274.16;4879535;29;20402;-88
2023/12/05 09:15:27;;;;;;;114.15;62.35;;;;;;;-3.06;98.14;99272.50;4857563;29;20502;-88
2023/12/05 09:17:52;;;;;;;102.25;51.83;;;;;;;-3.04;97.68;99275.88;4842478;29;20044;-88
2023/12/05 09:20:19;;;;;;;110.30;60.78;;;;;;;-3.00;97.84;99277.59;4842341;29;20060;-88
2023/12/05 09:22:44;;;;;;;83.35;47.22;;;;;;;-3.03;97.76;99265.72;4842578;29;20519;-88
2023/12/05 09:25:10;;;;;;;78.63;44.08;;;;;;;-3.04;97.39;99286.91;4887231;29;20146;-88
2023/12/05 09:27:36;;;;;;;89.15;44.70;;;;;;;-3.12;97.71;99280.09;4861118;29;20075;-88
2023/12/05 09:30:02;;;;;;;84.40;44.08;;;;;;;-3.16;97.97;99275.84;4902318;29;20259;-88
2023/12/05 09:32:27;;;;;;;93.45;53.90;;;;;;;-3.20;97.89;99266.50;4916812;29;20549;-88
2023/12/05 09:34:53;;;;;;;84.95;44.15;;;;;;;-3.44;98.30;99227.41;4876245;29;20041;-88
2023/12/05 09:37:18;;;;;;;89.75;47.17;;;;;;;-3.16;98.81;99265.66;4875880;29;20052;-88
2023/12/05 09:39:43;;;;;;;85.55;44.92;;;;;;;-3.24;98.83;99247.84;4875871;29;20149;-87
2023/12/05 09:42:13;;;;;;;88.93;45.70;;;;;;;-3.09;98.79;99270.78;4874920;29;20132;-88
2023/12/05 09:44:44;;;;;;;78.22;43.38;;;;;;;-3.09;98.97;99260.59;4859429;29;20045;-88
2023/12/05 09:47:13;;;;;;;77.43;43.25;;;;;;;-3.07;98.83;99238.53;4904350;29;20040;-88
2023/12/05 09:49:40;;;;;;;80.97;42.25;;;;;;;-2.85;99.13;99248.75;4896220;29;20033;-89
2023/12/05 09:52:06;;;;;;;93.68;49.97;;;;;;;-2.83;98.66;99244.47;4896389;29;20028;-88
2023/12/05 09:54:33;;;;;;;81.60;44.13;;;;;;;-3.05;98.99;99200.31;4896268;29;20079;-89
2023/12/05 09:56:59;;;;;;;81.13;43.72;;;;;;;-2.78;98.95;99248.75;4912827;29;20477;-88
2023/12/05 09:59:26;;;;;;;77.38;43.00;;;;;;;-2.72;99.08;99231.75;4896150;29;20408;-89
2023/12/05 10:01:58;;;;;;;86.88;45.40;;;;;;;-2.69;98.73;99232.59;4896648;29;20044;-88
2023/12/05 10:04:27;;;;;;;90.45;45.08;;;;;;;-2.61;98.85;99240.25;4897251;29;20032;-91
2023/12/05 10:06:56;;;;;;;222.15;104.88;;;;;;;-2.57;98.72;99235.16;4951081;28;20043;-90
2023/12/05 10:09:23;;;;;;;107.30;57.20;;;;;;;-2.57;98.95;99222.41;4955697;28;20082;-90
2023/12/05 10:11:49;;;;;;;80.25;44.20;;;;;;;-2.51;98.57;99229.19;4955538;28;20038;-88
2023/12/05 10:14:15;;;;;;;72.55;40.58;;;;;;;-2.44;98.05;99222.38;4955841;28;20149;-88
2023/12/05 10:16:43;;;;;;;76.25;42.80;;;;;;;-2.49;98.19;99213.88;4956772;28;20030;-90
2023/12/05 10:19:09;;;;;;;74.35;40.42;;;;;;;-2.37;98.19;99218.97;4955910;28;20023;-89
2023/12/05 10:21:36;;;;;;;77.85;38.75;;;;;;;-2.28;98.44;99221.50;4955576;28;20031;-90
2023/12/05 10:24:02;;;;;;;86.60;43.00;;;;;;;-2.28;97.71;99213.84;4955832;28;20030;-89
2023/12/05 10:26:28;;;;;;;80.85;41.85;;;;;;;-2.65;97.68;99146.78;4955590;28;20137;-90
2023/12/05 10:28:56;;;;;;;76.90;41.38;;;;;;;-2.30;98.31;99179.84;4956064;28;20041;-90
2023/12/05 10:31:22;;;;;;;70.53;39.90;;;;;;;-2.10;97.98;99207.88;4951235;28;20088;-90
2023/12/05 10:33:50;;;;;;;72.72;40.85;;;;;;;-2.12;97.64;99191.72;4956191;28;20066;-90
2023/12/05 10:36:16;;;;;;;75.68;42.42;;;;;;;-2.36;97.62;99147.56;4956654;28;20526;-90
2023/12/05 10:38:46;;;;;;;70.55;41.25;;;;;;;-2.03;97.91;99189.97;4956090;28;20078;-90
2023/12/05 10:41:20;;;;;;;104.07;56.08;;;;;;;-2.07;97.57;99165.31;4955895;28;20031;-90
2023/12/05 10:43:50;;;;;;;103.28;60.45;;;;;;;-1.93;96.90;99184.84;4955832;28;20037;-90
2023/12/05 10:46:16;;;;;;;82.30;43.58;;;;;;;-1.93;97.24;99185.69;4955542;28;20219;-91
2023/12/05 10:48:44;;;;;;;77.45;43.65;;;;;;;-1.84;97.51;99192.47;4955977;28;20447;-90
2023/12/05 10:51:09;;;;;;;76.72;39.78;;;;;;;-1.86;97.52;99177.16;4956722;28;20062;-90
2023/12/05 10:53:35;;;;;;;62.42;36.78;;;;;;;-1.73;96.77;99192.41;4935788;29;20059;-90
2023/12/05 10:56:19;;;;;;;97.22;49.53;;;;;;;-1.83;97.17;99177.13;4920305;29;20429;-90
2023/12/05 10:58:47;;;;;;;113.18;56.58;;;;;;;-1.69;96.62;99200.03;4920231;29;20142;-90
2023/12/05 11:01:13;;;;;;;130.68;73.45;;;;;;;-1.66;96.77;99194.09;4920174;29;20035;-90
2023/12/05 11:03:40;;;;;;;83.00;40.47;;;;;;;-2.03;97.62;99128.72;4936214;29;20146;-90
2023/12/05 11:06:08;;;;;;;116.07;64.40;;;;;;;-1.61;97.51;99184.69;4920383;29;20039;-91
2023/12/05 11:08:35;;;;;;;58.72;32.03;;;;;;;-1.64;97.42;99166.84;4919954;29;20520;-90
2023/12/05 11:11:04;;;;;;;63.70;33.53;;;;;;;-1.46;97.28;99182.06;4920661;29;20105;-90
2023/12/05 11:13:32;;;;;;;63.45;37.35;;;;;;;-1.34;96.51;99189.66;4919638;29;20035;-90
2023/12/05 11:16:03;;;;;;;56.80;32.28;;;;;;;-1.73;96.13;99111.56;4919499;29;20035;-90
2023/12/05 11:18:35;;;;;;;57.55;31.48;;;;;;;-1.30;96.34;99182.84;4919075;29;20040;-90
2023/12/05 11:21:30;;;;;;;62.03;36.00;;;;;;;-1.28;96.66;99186.22;4916284;29;20394;-91